Airfield :
LOGIN :

Register | Disclaimer

   EN    FR    IT 

 










Legend :    VFR   Marginal VFR   IFR   Intensive IFR   Very Intensive IFR
Visi :
Ceiling :
>= 8 km
>= 3000ft
5 to 8 km
1000 to 3000 ft
1500m to 5 km
500 to 1000 ft
800 to 1500m
200 to 500 ft
< 800m
< 200 ft
Symbols :   Thunderstorms  Fog  Heavy snow  Heavy precipitations  Wind > 20 kt
SIGMETs :     Misc.  Thunderstorms  Icing  Turbulence  Mountain Waves  Volcanic Ashes






- Airport Elevation : 18 ft


LIPC - Cervia AFB Ravenna

CURRENT METAR :
  • 282055Z 04010KT 9999 SCT030 SCT050 13/10 Q1016 RMK BKN VIS MIN 9999 WIND THR11 04010KT WIND THR29 05010KT BLU

EXPIRED METARs :
  • 281955Z 05010KT 9999 FEW020 13/11 Q1016 RMK FEW VIS MIN 9999 WIND THR11 06010KT WIND THR29 06010KT BLU
  • 281855Z 06005KT 9999 SCT020 12/12 Q1016 RMK SCT VIS MIN 9999 WIND THR11 06006KT WIND THR29 07006KT BLU
  • 281755Z 08005KT 9999 SCT008 BKN015 12/12 Q1016 RMK OVC VIS MIN 9999 WIND THR11 08005KT WIND THR29 09005KT WHT
  • 281655Z 10007KT 9999 SCT010 BKN015 13/13 Q1015 RMK OVC VIS MIN 9999 WIND THR11 10008KT WIND THR29 10006KT WHT

TAF TAF LIPC
Valid from the 28 at 21:00 until the 29 at 06:00 UTC


282000Z 2821/2906 07008KT 9999 BKN020
TEMPO 2821/2903 6000 RA



MET'MAP, your aeronautical weather chart ! - Copyright ORBIFLY December 2007 - Disclaimer

ORBIFLY MET'MAP TEAM :

Programming & Development : Alexandra Zaïnal
Original concept : Baudouin d'Aumeries
Technical & hardware support : Manuel Goepfert
Assistance : Marc-Olivier Méhu




SOURCES & CREDITS :

   NOAA